sensor_id;sensor_type;location;lat;lon;timestamp;temperature;humidity
66576;SHT31;53428;47.686;16.584;2022-07-01T00:01:24;24.17;74.84
66576;SHT31;53428;47.686;16.584;2022-07-01T00:06:23;24.01;75.47
66576;SHT31;53428;47.686;16.584;2022-07-01T00:11:22;24.01;75.54
66576;SHT31;53428;47.686;16.584;2022-07-01T00:16:22;24.08;75.29
66576;SHT31;53428;47.686;16.584;2022-07-01T00:21:21;24.18;75.08
66576;SHT31;53428;47.686;16.584;2022-07-01T00:26:20;24.00;75.60
66576;SHT31;53428;47.686;16.584;2022-07-01T00:31:20;24.00;75.34
66576;SHT31;53428;47.686;16.584;2022-07-01T00:36:19;23.98;75.43
66576;SHT31;53428;47.686;16.584;2022-07-01T00:41:18;23.97;75.52
66576;SHT31;53428;47.686;16.584;2022-07-01T00:46:18;23.91;75.41
66576;SHT31;53428;47.686;16.584;2022-07-01T00:51:20;23.87;75.90
66576;SHT31;53428;47.686;16.584;2022-07-01T00:56:19;23.77;75.88
66576;SHT31;53428;47.686;16.584;2022-07-01T01:01:19;23.84;75.88
66576;SHT31;53428;47.686;16.584;2022-07-01T01:06:19;23.88;75.79
66576;SHT31;53428;47.686;16.584;2022-07-01T01:11:19;23.93;75.50
66576;SHT31;53428;47.686;16.584;2022-07-01T01:16:20;23.84;75.59
66576;SHT31;53428;47.686;16.584;2022-07-01T01:21:20;24.01;74.08
66576;SHT31;53428;47.686;16.584;2022-07-01T01:26:21;23.88;74.01
66576;SHT31;53428;47.686;16.584;2022-07-01T01:31:31;23.54;75.07
66576;SHT31;53428;47.686;16.584;2022-07-01T01:36:31;23.42;75.82
66576;SHT31;53428;47.686;16.584;2022-07-01T01:41:30;23.23;76.60
66576;SHT31;53428;47.686;16.584;2022-07-01T01:46:30;23.04;77.44
66576;SHT31;53428;47.686;16.584;2022-07-01T01:51:31;22.99;77.97
66576;SHT31;53428;47.686;16.584;2022-07-01T01:56:30;22.85;78.62
66576;SHT31;53428;47.686;16.584;2022-07-01T02:01:30;22.69;79.25
66576;SHT31;53428;47.686;16.584;2022-07-01T02:06:29;22.48;80.08
66576;SHT31;53428;47.686;16.584;2022-07-01T02:11:29;22.51;80.01
66576;SHT31;53428;47.686;16.584;2022-07-01T02:16:28;22.54;79.99
66576;SHT31;53428;47.686;16.584;2022-07-01T02:21:27;22.57;80.14
66576;SHT31;53428;47.686;16.584;2022-07-01T02:26:27;22.63;79.81
66576;SHT31;53428;47.686;16.584;2022-07-01T02:31:26;22.69;79.52
66576;SHT31;53428;47.686;16.584;2022-07-01T02:36:26;22.69;79.52
66576;SHT31;53428;47.686;16.584;2022-07-01T02:41:25;22.61;79.93
66576;SHT31;53428;47.686;16.584;2022-07-01T02:46:24;22.46;80.51
66576;SHT31;53428;47.686;16.584;2022-07-01T02:51:24;22.40;80.63
66576;SHT31;53428;47.686;16.584;2022-07-01T02:56:23;22.35;80.87
66576;SHT31;53428;47.686;16.584;2022-07-01T03:01:23;22.35;80.62
66576;SHT31;53428;47.686;16.584;2022-07-01T03:06:22;22.19;81.50
66576;SHT31;53428;47.686;16.584;2022-07-01T03:11:21;22.05;81.63
66576;SHT31;53428;47.686;16.584;2022-07-01T03:16:21;22.06;81.61
66576;SHT31;53428;47.686;16.584;2022-07-01T03:21:20;22.20;81.13
66576;SHT31;53428;47.686;16.584;2022-07-01T03:26:19;22.17;81.28
66576;SHT31;53428;47.686;16.584;2022-07-01T03:31:18;22.14;81.35
66576;SHT31;53428;47.686;16.584;2022-07-01T03:36:18;22.27;81.10
66576;SHT31;53428;47.686;16.584;2022-07-01T03:41:17;22.46;80.57
66576;SHT31;53428;47.686;16.584;2022-07-01T03:46:16;22.51;80.39
66576;SHT31;53428;47.686;16.584;2022-07-01T03:51:16;22.63;79.98
66576;SHT31;53428;47.686;16.584;2022-07-01T03:56:15;22.78;79.49
66576;SHT31;53428;47.686;16.584;2022-07-01T04:01:14;22.90;79.02
66576;SHT31;53428;47.686;16.584;2022-07-01T04:06:14;23.12;77.98
66576;SHT31;53428;47.686;16.584;2022-07-01T04:11:14;23.20;77.77
66576;SHT31;53428;47.686;16.584;2022-07-01T04:16:14;22.79;79.19
66576;SHT31;53428;47.686;16.584;2022-07-01T04:21:13;22.74;79.14
66576;SHT31;53428;47.686;16.584;2022-07-01T04:26:31;22.85;78.79
66576;SHT31;53428;47.686;16.584;2022-07-01T04:31:31;22.98;78.15
66576;SHT31;53428;47.686;16.584;2022-07-01T04:36:31;23.14;77.72
66576;SHT31;53428;47.686;16.584;2022-07-01T04:41:31;23.29;77.22
66576;SHT31;53428;47.686;16.584;2022-07-01T04:46:48;23.30;77.00
66576;SHT31;53428;47.686;16.584;2022-07-01T04:51:48;23.57;76.33
66576;SHT31;53428;47.686;16.584;2022-07-01T04:56:47;23.62;76.30
66576;SHT31;53428;47.686;16.584;2022-07-01T05:01:48;23.74;75.69
66576;SHT31;53428;47.686;16.584;2022-07-01T05:06:50;23.81;75.79
66576;SHT31;53428;47.686;16.584;2022-07-01T05:11:49;23.98;75.32
66576;SHT31;53428;47.686;16.584;2022-07-01T05:16:49;24.14;74.87
66576;SHT31;53428;47.686;16.584;2022-07-01T05:21:48;24.31;73.99
66576;SHT31;53428;47.686;16.584;2022-07-01T05:26:59;24.42;73.72
66576;SHT31;53428;47.686;16.584;2022-07-01T05:31:59;24.67;72.90
66576;SHT31;53428;47.686;16.584;2022-07-01T05:36:58;25.02;71.85
66576;SHT31;53428;47.686;16.584;2022-07-01T05:41:57;25.30;69.90
66576;SHT31;53428;47.686;16.584;2022-07-01T05:46:56;25.52;69.50
66576;SHT31;53428;47.686;16.584;2022-07-01T05:51:56;25.86;67.96
66576;SHT31;53428;47.686;16.584;2022-07-01T05:56:55;25.76;68.85
66576;SHT31;53428;47.686;16.584;2022-07-01T06:01:54;25.75;70.15
66576;SHT31;53428;47.686;16.584;2022-07-01T06:06:54;26.03;69.43
66576;SHT31;53428;47.686;16.584;2022-07-01T06:11:53;26.33;68.13
66576;SHT31;53428;47.686;16.584;2022-07-01T06:16:52;26.68;66.39
66576;SHT31;53428;47.686;16.584;2022-07-01T06:21:52;26.71;66.47
66576;SHT31;53428;47.686;16.584;2022-07-01T06:26:51;26.82;66.42
66576;SHT31;53428;47.686;16.584;2022-07-01T06:31:50;26.69;65.73
66576;SHT31;53428;47.686;16.584;2022-07-01T06:36:49;27.02;65.61
66576;SHT31;53428;47.686;16.584;2022-07-01T06:41:49;27.25;64.01
66576;SHT31;53428;47.686;16.584;2022-07-01T06:46:48;27.40;62.53
66576;SHT31;53428;47.686;16.584;2022-07-01T06:51:48;27.47;61.18
66576;SHT31;53428;47.686;16.584;2022-07-01T06:56:47;27.27;61.05
66576;SHT31;53428;47.686;16.584;2022-07-01T07:01:46;27.22;61.14
66576;SHT31;53428;47.686;16.584;2022-07-01T07:06:46;27.54;60.05
66576;SHT31;53428;47.686;16.584;2022-07-01T07:11:45;27.47;60.90
66576;SHT31;53428;47.686;16.584;2022-07-01T07:16:44;27.67;60.17
66576;SHT31;53428;47.686;16.584;2022-07-01T07:21:43;27.80;60.57
66576;SHT31;53428;47.686;16.584;2022-07-01T07:26:42;27.81;60.78
66576;SHT31;53428;47.686;16.584;2022-07-01T07:31:42;28.04;60.42
66576;SHT31;53428;47.686;16.584;2022-07-01T07:36:41;28.23;59.28
66576;SHT31;53428;47.686;16.584;2022-07-01T07:41:41;28.25;59.72
66576;SHT31;53428;47.686;16.584;2022-07-01T07:46:40;28.42;58.52
66576;SHT31;53428;47.686;16.584;2022-07-01T07:51:39;28.32;58.06
66576;SHT31;53428;47.686;16.584;2022-07-01T07:56:39;28.53;57.57
66576;SHT31;53428;47.686;16.584;2022-07-01T08:01:38;28.57;57.27
66576;SHT31;53428;47.686;16.584;2022-07-01T08:06:37;28.96;56.55
66576;SHT31;53428;47.686;16.584;2022-07-01T08:11:36;29.35;55.32
66576;SHT31;53428;47.686;16.584;2022-07-01T08:16:36;29.67;54.10
66576;SHT31;53428;47.686;16.584;2022-07-01T08:21:36;29.70;55.34
66576;SHT31;53428;47.686;16.584;2022-07-01T08:26:35;29.36;55.66
66576;SHT31;53428;47.686;16.584;2022-07-01T08:31:35;30.06;53.78
66576;SHT31;53428;47.686;16.584;2022-07-01T08:36:34;30.32;53.02
66576;SHT31;53428;47.686;16.584;2022-07-01T08:41:34;30.51;53.15
66576;SHT31;53428;47.686;16.584;2022-07-01T08:46:34;30.48;52.67
66576;SHT31;53428;47.686;16.584;2022-07-01T08:51:34;30.69;51.54
66576;SHT31;53428;47.686;16.584;2022-07-01T08:56:33;31.10;51.56
66576;SHT31;53428;47.686;16.584;2022-07-01T09:01:42;31.29;50.30
66576;SHT31;53428;47.686;16.584;2022-07-01T09:06:42;30.79;51.12
66576;SHT31;53428;47.686;16.584;2022-07-01T09:11:50;30.42;51.71
66576;SHT31;53428;47.686;16.584;2022-07-01T09:17:00;30.32;52.02
66576;SHT31;53428;47.686;16.584;2022-07-01T09:22:01;30.93;50.82
66576;SHT31;53428;47.686;16.584;2022-07-01T09:32:02;31.98;49.41
66576;SHT31;53428;47.686;16.584;2022-07-01T09:37:03;32.53;48.78
66576;SHT31;53428;47.686;16.584;2022-07-01T09:42:03;32.20;47.94
66576;SHT31;53428;47.686;16.584;2022-07-01T09:47:02;32.28;47.59
66576;SHT31;53428;47.686;16.584;2022-07-01T09:52:05;32.70;47.07
66576;SHT31;53428;47.686;16.584;2022-07-01T09:57:04;32.28;47.80
66576;SHT31;53428;47.686;16.584;2022-07-01T10:02:07;32.05;48.11
66576;SHT31;53428;47.686;16.584;2022-07-01T10:17:53;32.44;48.44
66576;SHT31;53428;47.686;16.584;2022-07-01T10:23:06;32.28;47.48
66576;SHT31;53428;47.686;16.584;2022-07-01T10:28:19;33.22;47.05
66576;SHT31;53428;47.686;16.584;2022-07-01T10:33:34;33.05;46.19
66576;SHT31;53428;47.686;16.584;2022-07-01T10:38:35;33.14;46.25
66576;SHT31;53428;47.686;16.584;2022-07-01T10:43:54;34.88;42.89
66576;SHT31;53428;47.686;16.584;2022-07-01T10:48:54;35.36;41.55
66576;SHT31;53428;47.686;16.584;2022-07-01T10:53:53;34.82;43.18
66576;SHT31;53428;47.686;16.584;2022-07-01T10:59:01;34.78;42.08
66576;SHT31;53428;47.686;16.584;2022-07-01T11:04:01;36.05;40.89
66576;SHT31;53428;47.686;16.584;2022-07-01T11:09:00;36.32;40.13
66576;SHT31;53428;47.686;16.584;2022-07-01T11:14:00;35.76;40.99
66576;SHT31;53428;47.686;16.584;2022-07-01T11:18:59;36.72;39.02
66576;SHT31;53428;47.686;16.584;2022-07-01T11:23:58;35.88;40.06
66576;SHT31;53428;47.686;16.584;2022-07-01T11:28:57;35.80;40.71
66576;SHT31;53428;47.686;16.584;2022-07-01T11:33:57;37.86;36.99
66576;SHT31;53428;47.686;16.584;2022-07-01T11:38:56;36.79;38.64
66576;SHT31;53428;47.686;16.584;2022-07-01T11:49:29;36.24;40.16
66576;SHT31;53428;47.686;16.584;2022-07-01T11:54:28;36.05;39.98
66576;SHT31;53428;47.686;16.584;2022-07-01T11:59:27;38.60;36.13
66576;SHT31;53428;47.686;16.584;2022-07-01T12:04:29;37.76;36.92
66576;SHT31;53428;47.686;16.584;2022-07-01T12:09:29;39.19;35.45
66576;SHT31;53428;47.686;16.584;2022-07-01T12:14:30;39.09;34.53
66576;SHT31;53428;47.686;16.584;2022-07-01T12:19:38;39.76;34.04
66576;SHT31;53428;47.686;16.584;2022-07-01T12:24:38;39.25;34.87
66576;SHT31;53428;47.686;16.584;2022-07-01T12:34:48;38.26;35.12
66576;SHT31;53428;47.686;16.584;2022-07-01T12:39:51;40.41;33.54
66576;SHT31;53428;47.686;16.584;2022-07-01T12:44:51;38.81;35.04
66576;SHT31;53428;47.686;16.584;2022-07-01T12:49:50;38.20;36.06
66576;SHT31;53428;47.686;16.584;2022-07-01T12:55:20;39.06;34.96
66576;SHT31;53428;47.686;16.584;2022-07-01T13:00:21;40.14;33.20
66576;SHT31;53428;47.686;16.584;2022-07-01T13:05:21;38.92;34.56
66576;SHT31;53428;47.686;16.584;2022-07-01T13:10:21;40.97;32.26
66576;SHT31;53428;47.686;16.584;2022-07-01T13:15:20;41.15;31.62
66576;SHT31;53428;47.686;16.584;2022-07-01T13:20:20;38.64;35.17
66576;SHT31;53428;47.686;16.584;2022-07-01T13:25:20;40.70;33.08
66576;SHT31;53428;47.686;16.584;2022-07-01T13:30:19;39.97;33.96
66576;SHT31;53428;47.686;16.584;2022-07-01T13:35:19;39.84;34.21
66576;SHT31;53428;47.686;16.584;2022-07-01T13:40:19;38.92;35.05
66576;SHT31;53428;47.686;16.584;2022-07-01T13:45:20;41.78;31.19
66576;SHT31;53428;47.686;16.584;2022-07-01T13:50:19;42.86;29.77
66576;SHT31;53428;47.686;16.584;2022-07-01T13:55:19;39.63;33.93
66576;SHT31;53428;47.686;16.584;2022-07-01T14:00:18;42.78;29.90
66576;SHT31;53428;47.686;16.584;2022-07-01T14:05:18;42.15;30.60
66576;SHT31;53428;47.686;16.584;2022-07-01T14:10:17;42.60;29.40
66576;SHT31;53428;47.686;16.584;2022-07-01T14:15:16;41.79;29.26
66576;SHT31;53428;47.686;16.584;2022-07-01T14:20:15;41.39;29.83
66576;SHT31;53428;47.686;16.584;2022-07-01T14:25:14;41.03;29.44
66576;SHT31;53428;47.686;16.584;2022-07-01T14:30:15;43.09;23.55
66576;SHT31;53428;47.686;16.584;2022-07-01T14:35:14;42.11;22.77
66576;SHT31;53428;47.686;16.584;2022-07-01T14:40:13;41.26;24.36
66576;SHT31;53428;47.686;16.584;2022-07-01T14:45:13;42.17;23.81
66576;SHT31;53428;47.686;16.584;2022-07-01T14:50:13;41.96;24.06
66576;SHT31;53428;47.686;16.584;2022-07-01T14:55:12;42.67;23.15
66576;SHT31;53428;47.686;16.584;2022-07-01T15:00:11;42.16;23.32
66576;SHT31;53428;47.686;16.584;2022-07-01T15:05:11;43.26;22.32
66576;SHT31;53428;47.686;16.584;2022-07-01T15:10:10;43.18;22.57
66576;SHT31;53428;47.686;16.584;2022-07-01T15:15:09;43.09;21.83
66576;SHT31;53428;47.686;16.584;2022-07-01T15:20:09;42.37;23.41
66576;SHT31;53428;47.686;16.584;2022-07-01T15:25:09;42.17;24.03
66576;SHT31;53428;47.686;16.584;2022-07-01T15:30:09;41.61;24.15
66576;SHT31;53428;47.686;16.584;2022-07-01T15:35:09;41.62;23.75
66576;SHT31;53428;47.686;16.584;2022-07-01T15:40:08;42.19;23.22
66576;SHT31;53428;47.686;16.584;2022-07-01T15:45:08;42.53;23.06
66576;SHT31;53428;47.686;16.584;2022-07-01T15:50:07;43.12;22.65
66576;SHT31;53428;47.686;16.584;2022-07-01T15:55:06;38.10;34.50
66576;SHT31;53428;47.686;16.584;2022-07-01T16:00:06;41.09;30.81
66576;SHT31;53428;47.686;16.584;2022-07-01T16:05:06;37.49;35.82
66576;SHT31;53428;47.686;16.584;2022-07-01T16:10:10;36.70;36.81
66576;SHT31;53428;47.686;16.584;2022-07-01T16:15:10;37.04;36.25
66576;SHT31;53428;47.686;16.584;2022-07-01T16:20:10;34.16;41.04
66576;SHT31;53428;47.686;16.584;2022-07-01T16:25:10;33.04;42.72
66576;SHT31;53428;47.686;16.584;2022-07-01T16:30:11;32.30;44.44
66576;SHT31;53428;47.686;16.584;2022-07-01T16:35:11;32.33;44.83
66576;SHT31;53428;47.686;16.584;2022-07-01T16:40:15;32.40;45.89
66576;SHT31;53428;47.686;16.584;2022-07-01T16:45:27;31.09;48.28
66576;SHT31;53428;47.686;16.584;2022-07-01T16:50:37;30.47;49.60
66576;SHT31;53428;47.686;16.584;2022-07-01T16:55:41;29.67;51.65
66576;SHT31;53428;47.686;16.584;2022-07-01T17:00:42;28.12;54.00
66576;SHT31;53428;47.686;16.584;2022-07-01T17:05:41;27.15;56.53
66576;SHT31;53428;47.686;16.584;2022-07-01T17:10:41;26.84;57.82
66576;SHT31;53428;47.686;16.584;2022-07-01T17:15:41;26.24;59.54
66576;SHT31;53428;47.686;16.584;2022-07-01T17:20:41;25.90;60.38
66576;SHT31;53428;47.686;16.584;2022-07-01T17:25:44;25.55;60.98
66576;SHT31;53428;47.686;16.584;2022-07-01T17:36:12;25.33;54.33
66576;SHT31;53428;47.686;16.584;2022-07-01T17:41:21;24.72;54.77
66576;SHT31;53428;47.686;16.584;2022-07-01T17:46:24;24.18;56.22
66576;SHT31;53428;47.686;16.584;2022-07-01T17:51:25;23.69;57.87
66576;SHT31;53428;47.686;16.584;2022-07-01T17:56:26;23.20;59.19
66576;SHT31;53428;47.686;16.584;2022-07-01T18:01:26;22.63;60.23
66576;SHT31;53428;47.686;16.584;2022-07-01T18:06:27;22.47;60.33
66576;SHT31;53428;47.686;16.584;2022-07-01T18:11:58;22.29;60.91
66576;SHT31;53428;47.686;16.584;2022-07-01T18:17:02;21.83;61.60
66576;SHT31;53428;47.686;16.584;2022-07-01T18:22:04;21.71;61.87
66576;SHT31;53428;47.686;16.584;2022-07-01T18:27:08;21.58;61.96
66576;SHT31;53428;47.686;16.584;2022-07-01T18:32:07;21.43;62.24
66576;SHT31;53428;47.686;16.584;2022-07-01T18:37:10;21.41;62.07
66576;SHT31;53428;47.686;16.584;2022-07-01T18:42:10;21.26;62.25
66576;SHT31;53428;47.686;16.584;2022-07-01T18:47:09;21.00;62.59
66576;SHT31;53428;47.686;16.584;2022-07-01T18:52:09;20.80;62.85
66576;SHT31;53428;47.686;16.584;2022-07-01T18:57:08;20.85;62.73
66576;SHT31;53428;47.686;16.584;2022-07-01T19:02:12;20.65;63.05
66576;SHT31;53428;47.686;16.584;2022-07-01T19:07:12;20.52;62.89
66576;SHT31;53428;47.686;16.584;2022-07-01T19:12:11;20.44;63.18
66576;SHT31;53428;47.686;16.584;2022-07-01T19:17:11;20.35;63.42
66576;SHT31;53428;47.686;16.584;2022-07-01T19:22:10;20.27;63.66
66576;SHT31;53428;47.686;16.584;2022-07-01T19:27:10;20.14;64.07
66576;SHT31;53428;47.686;16.584;2022-07-01T19:32:09;20.04;64.39
66576;SHT31;53428;47.686;16.584;2022-07-01T19:37:08;19.93;64.88
66576;SHT31;53428;47.686;16.584;2022-07-01T19:42:13;20.01;64.86
66576;SHT31;53428;47.686;16.584;2022-07-01T19:47:12;19.96;65.13
66576;SHT31;53428;47.686;16.584;2022-07-01T19:52:11;19.91;65.28
66576;SHT31;53428;47.686;16.584;2022-07-01T19:57:12;19.98;65.38
66576;SHT31;53428;47.686;16.584;2022-07-01T20:02:12;20.01;65.27
66576;SHT31;53428;47.686;16.584;2022-07-01T20:07:11;20.08;65.19
66576;SHT31;53428;47.686;16.584;2022-07-01T20:12:11;20.06;64.48
66576;SHT31;53428;47.686;16.584;2022-07-01T20:17:10;20.00;64.30
66576;SHT31;53428;47.686;16.584;2022-07-01T20:22:10;19.81;65.68
66576;SHT31;53428;47.686;16.584;2022-07-01T20:27:09;19.58;68.62
66576;SHT31;53428;47.686;16.584;2022-07-01T20:32:09;19.14;68.00
66576;SHT31;53428;47.686;16.584;2022-07-01T20:37:08;18.64;70.55
66576;SHT31;53428;47.686;16.584;2022-07-01T20:42:07;18.40;71.14
66576;SHT31;53428;47.686;16.584;2022-07-01T20:47:06;18.02;74.33
66576;SHT31;53428;47.686;16.584;2022-07-01T20:52:06;17.66;76.24
66576;SHT31;53428;47.686;16.584;2022-07-01T20:57:05;17.64;76.41
66576;SHT31;53428;47.686;16.584;2022-07-01T21:02:05;17.59;76.61
66576;SHT31;53428;47.686;16.584;2022-07-01T21:07:05;17.61;76.48
66576;SHT31;53428;47.686;16.584;2022-07-01T21:12:04;17.54;76.80
66576;SHT31;53428;47.686;16.584;2022-07-01T21:17:04;17.53;76.89
66576;SHT31;53428;47.686;16.584;2022-07-01T21:22:04;17.39;77.47
66576;SHT31;53428;47.686;16.584;2022-07-01T21:27:03;17.40;77.58
66576;SHT31;53428;47.686;16.584;2022-07-01T21:32:03;17.41;77.54
66576;SHT31;53428;47.686;16.584;2022-07-01T21:37:02;16.85;82.80
66576;SHT31;53428;47.686;16.584;2022-07-01T21:42:03;15.57;94.27
66576;SHT31;53428;47.686;16.584;2022-07-01T21:47:03;15.58;95.26
66576;SHT31;53428;47.686;16.584;2022-07-01T21:52:04;15.55;94.27
66576;SHT31;53428;47.686;16.584;2022-07-01T21:57:05;15.48;98.18
66576;SHT31;53428;47.686;16.584;2022-07-01T22:02:05;15.38;94.88
66576;SHT31;53428;47.686;16.584;2022-07-01T22:07:06;15.27;95.45
66576;SHT31;53428;47.686;16.584;2022-07-01T22:12:08;15.24;93.83
66576;SHT31;53428;47.686;16.584;2022-07-01T22:17:12;15.21;94.17
66576;SHT31;53428;47.686;16.584;2022-07-01T22:22:13;15.16;93.31
66576;SHT31;53428;47.686;16.584;2022-07-01T22:27:14;15.08;93.67
66576;SHT31;53428;47.686;16.584;2022-07-01T22:32:15;15.17;93.97
66576;SHT31;53428;47.686;16.584;2022-07-01T22:37:14;15.24;93.29
66576;SHT31;53428;47.686;16.584;2022-07-01T22:42:15;15.16;93.80
66576;SHT31;53428;47.686;16.584;2022-07-01T22:47:18;15.26;92.16
66576;SHT31;53428;47.686;16.584;2022-07-01T22:52:22;15.27;92.23
66576;SHT31;53428;47.686;16.584;2022-07-01T22:57:35;15.23;92.23
66576;SHT31;53428;47.686;16.584;2022-07-01T23:02:39;15.28;91.53
66576;SHT31;53428;47.686;16.584;2022-07-01T23:07:46;15.31;90.53
66576;SHT31;53428;47.686;16.584;2022-07-01T23:13:03;15.38;89.88
66576;SHT31;53428;47.686;16.584;2022-07-01T23:18:04;15.44;88.95
66576;SHT31;53428;47.686;16.584;2022-07-01T23:23:06;15.37;89.18
66576;SHT31;53428;47.686;16.584;2022-07-01T23:28:09;15.38;88.54
66576;SHT31;53428;47.686;16.584;2022-07-01T23:33:10;15.34;88.35
66576;SHT31;53428;47.686;16.584;2022-07-01T23:38:11;15.37;86.90
66576;SHT31;53428;47.686;16.584;2022-07-01T23:43:11;15.35;86.42
66576;SHT31;53428;47.686;16.584;2022-07-01T23:48:10;15.34;86.02
66576;SHT31;53428;47.686;16.584;2022-07-01T23:53:09;15.26;85.61
66576;SHT31;53428;47.686;16.584;2022-07-01T23:58:08;15.30;85.74
